Time;durP1;ratioP1;P1;durP2;ratioP2;P2;SDS_P1;SDS_P2;PMS_P1;PMS_P2;Temp;Humidity;BMP_temperature;BMP_pressure;BME280_temperature;BME280_humidity;BME280_pressure;Samples;Min_cycle;Max_cycle;Signal;HPM_P1;HPM_P2
2022/10/14 00:00:50;;;;;;;34.28;13.13;;;;;;;14.11;95.21;100121.69;5056420;28;20426;-90
2022/10/14 00:03:17;;;;;;;33.78;14.15;;;;;;;14.13;95.27;100126.03;5054167;28;20500;-89
2022/10/14 00:05:44;;;;;;;39.65;14.65;;;;;;;14.11;95.27;100127.00;5057494;28;20040;-89
2022/10/14 00:08:11;;;;;;;29.60;13.82;;;;;;;14.11;94.94;100119.00;5047325;28;20101;-90
2022/10/14 00:10:38;;;;;;;35.38;14.90;;;;;;;14.14;95.05;100120.53;5040050;28;20075;-89
2022/10/14 00:13:06;;;;;;;26.02;13.90;;;;;;;14.13;95.24;100121.53;5058999;28;20439;-89
2022/10/14 00:15:39;;;;;;;31.85;14.18;;;;;;;14.08;94.86;100121.97;5039889;28;20045;-90
2022/10/14 00:18:08;;;;;;;34.13;14.75;;;;;;;14.13;95.23;100120.69;5043875;28;20051;-88
2022/10/14 00:20:35;;;;;;;26.58;13.68;;;;;;;14.12;95.13;100117.19;5031273;28;20048;-89
2022/10/14 00:23:02;;;;;;;29.95;13.13;;;;;;;14.16;94.83;100113.22;5027926;28;20050;-89
2022/10/14 00:25:29;;;;;;;31.35;12.90;;;;;;;14.18;94.39;100111.25;5030238;28;20057;-89
2022/10/14 00:27:56;;;;;;;31.63;12.88;;;;;;;14.17;94.63;100106.91;5037751;28;20047;-89
2022/10/14 00:30:23;;;;;;;24.70;12.73;;;;;;;14.17;94.69;100114.06;5018271;28;20045;-89
2022/10/14 00:32:50;;;;;;;28.20;12.57;;;;;;;14.19;94.23;100114.75;5031221;28;20040;-90
2022/10/14 00:35:17;;;;;;;26.10;12.75;;;;;;;14.21;94.08;100120.78;5048712;28;20398;-90
2022/10/14 00:37:44;;;;;;;30.65;13.05;;;;;;;14.21;94.01;100118.09;5048051;28;20080;-90
2022/10/14 00:40:11;;;;;;;28.50;12.88;;;;;;;14.20;93.94;100119.13;5029124;28;20056;-90
2022/10/14 00:42:38;;;;;;;33.42;13.38;;;;;;;14.18;94.01;100115.75;5037329;28;20135;-90
2022/10/14 00:45:11;;;;;;;27.00;12.65;;;;;;;14.13;94.27;100120.69;5060676;28;20059;-88
2022/10/14 00:47:38;;;;;;;27.73;12.27;;;;;;;14.14;94.62;100122.38;5077220;28;20048;-90
2022/10/14 00:50:07;;;;;;;39.65;12.90;;;;;;;14.13;94.31;100126.88;5046319;28;20048;-89
2022/10/14 00:52:34;;;;;;;39.10;12.45;;;;;;;14.09;94.89;100114.81;5037467;28;20680;-89
2022/10/14 00:55:07;;;;;;;23.95;11.73;;;;;;;14.09;94.46;100120.16;5052639;28;20870;-89
2022/10/14 00:57:35;;;;;;;37.28;12.30;;;;;;;14.13;94.77;100126.03;5060048;28;20630;-89
2022/10/14 01:00:06;;;;;;;31.45;11.60;;;;;;;14.08;94.67;100123.81;5079592;28;20051;-90
2022/10/14 01:02:33;;;;;;;28.27;12.10;;;;;;;14.08;95.01;100130.00;5043066;28;20106;-89
2022/10/14 01:05:02;;;;;;;26.30;12.00;;;;;;;14.08;94.70;100127.31;5023353;28;20115;-89
2022/10/14 01:07:33;;;;;;;53.63;12.50;;;;;;;14.06;95.27;100128.47;5041947;28;20049;-89
2022/10/14 01:10:19;;;;;;;28.70;14.65;;;;;;;14.02;94.57;100129.78;5062631;28;20430;-89
2022/10/14 01:12:56;;;;;;;35.03;14.68;;;;;;;14.05;94.81;100130.31;5047423;28;20407;-90
2022/10/14 01:15:47;;;;;;;38.67;13.07;;;;;;;14.05;94.78;100126.81;5036446;28;20045;-89
2022/10/14 01:18:47;;;;;;;30.77;13.73;;;;;;;14.05;94.62;100129.47;5073714;28;20040;-89
2022/10/14 01:21:21;;;;;;;41.78;15.93;;;;;;;14.05;94.92;100124.13;5019782;28;20475;-89
2022/10/14 01:24:12;;;;;;;39.08;15.35;;;;;;;13.99;95.24;100119.38;5081029;28;20049;-89
2022/10/14 01:27:19;;;;;;;43.72;15.38;;;;;;;13.96;95.36;100115.19;5049120;28;20048;-89
2022/10/14 01:30:05;;;;;;;42.53;16.35;;;;;;;14.00;95.02;100113.06;5023463;28;20048;-89
2022/10/14 01:32:38;;;;;;;36.15;16.20;;;;;;;14.06;94.87;100110.63;5057178;28;20091;-89
2022/10/14 01:35:41;;;;;;;;;;;;;;;13.90;96.05;100111.28;5064484;28;20578;-89
2022/10/14 01:38:16;;;;;;;36.58;12.48;;;;;;;14.02;95.23;100111.09;5017219;28;19928;-89
2022/10/14 01:40:57;;;;;;;33.65;13.25;;;;;;;14.01;95.00;100096.03;5029450;28;20052;-88
2022/10/14 01:43:26;;;;;;;33.33;14.38;;;;;;;14.10;94.88;100100.47;5008852;28;20102;-89
2022/10/14 01:45:54;;;;;;;31.38;14.32;;;;;;;14.12;94.60;100101.19;5060320;28;20048;-89
2022/10/14 01:48:25;;;;;;;29.95;13.48;;;;;;;14.13;94.64;100094.00;5028849;28;20051;-89
2022/10/14 01:50:53;;;;;;;40.08;14.63;;;;;;;14.13;94.93;100097.50;5040483;28;20110;-89
2022/10/14 01:53:23;;;;;;;31.23;13.85;;;;;;;14.13;94.67;100091.34;5068545;28;20037;-89
2022/10/14 01:55:53;;;;;;;35.90;12.68;;;;;;;14.13;94.90;100097.50;5035441;28;20448;-90
2022/10/14 01:58:22;;;;;;;38.15;12.63;;;;;;;14.14;94.86;100093.00;5060060;28;20048;-88
2022/10/14 02:00:49;;;;;;;53.42;15.40;;;;;;;14.10;95.13;100087.97;5032310;28;20544;-89
2022/10/14 02:03:16;;;;;;;29.60;12.95;;;;;;;14.13;95.08;100089.50;5022348;28;20047;-88
2022/10/14 02:05:57;;;;;;;39.03;12.57;;;;;;;14.06;95.00;100091.91;5037986;28;20060;-89
2022/10/14 02:08:57;;;;;;;28.17;13.45;;;;;;;13.99;95.53;100087.34;5055777;28;20051;-88
2022/10/14 02:11:24;;;;;;;29.23;12.85;;;;;;;14.12;95.10;100087.81;5041021;28;20601;-88
2022/10/14 02:14:22;;;;;;;40.63;13.48;;;;;;;14.02;95.28;100098.56;5045559;28;20399;-89
2022/10/14 02:17:08;;;;;;;34.03;12.90;;;;;;;14.02;95.41;100090.56;5011974;28;20479;-89
2022/10/14 02:19:44;;;;;;;34.17;13.20;;;;;;;14.05;95.49;100092.09;5056486;28;20052;-90
2022/10/14 02:22:32;;;;;;;33.22;12.80;;;;;;;14.04;95.08;100082.38;5058494;28;20045;-89
2022/10/14 02:25:22;;;;;;;30.10;12.27;;;;;;;14.08;95.29;100081.94;5066197;28;20047;-89
2022/10/14 02:27:50;;;;;;;32.83;13.55;;;;;;;14.11;95.14;100078.13;5052819;28;20041;-89
2022/10/14 02:30:17;;;;;;;29.80;12.25;;;;;;;14.14;94.98;100074.31;5029644;28;20080;-89
2022/10/14 02:32:50;;;;;;;33.17;15.33;;;;;;;14.14;95.08;100075.13;5026335;28;20476;-90
2022/10/14 02:35:18;;;;;;;37.80;13.95;;;;;;;14.15;94.97;100071.50;5047242;28;21400;-89
2022/10/14 02:37:46;;;;;;;30.80;13.48;;;;;;;14.14;94.75;100061.78;5047097;28;20056;-90
2022/10/14 02:40:24;;;;;;;36.65;13.68;;;;;;;14.10;94.78;100061.25;5041567;28;20048;-89
2022/10/14 02:42:53;;;;;;;37.90;14.05;;;;;;;14.14;94.99;100061.78;5039504;28;20438;-89
2022/10/14 02:45:19;;;;;;;49.45;14.60;;;;;;;14.13;95.23;100057.44;5053797;28;20044;-89
2022/10/14 02:47:46;;;;;;;32.13;14.38;;;;;;;14.15;94.94;100052.78;5061586;28;20064;-89
2022/10/14 02:50:13;;;;;;;46.20;15.48;;;;;;;14.14;95.02;100053.78;5031747;28;20067;-89
2022/10/14 02:52:40;;;;;;;34.55;13.63;;;;;;;14.15;95.20;100049.28;5045043;28;20040;-88
2022/10/14 02:55:07;;;;;;;33.08;15.25;;;;;;;14.15;94.83;100044.78;5036850;28;20048;-89
2022/10/14 02:57:33;;;;;;;46.22;14.68;;;;;;;14.13;95.01;100045.94;5060288;28;20050;-89
2022/10/14 03:00:00;;;;;;;37.58;13.20;;;;;;;14.13;95.09;100046.75;5065665;28;20036;-88
2022/10/14 03:02:28;;;;;;;68.57;15.35;;;;;;;14.11;95.47;100040.72;5052786;28;20124;-88
2022/10/14 03:04:57;;;;;;;44.55;14.50;;;;;;;14.11;95.38;100033.56;5038778;28;20052;-88
2022/10/14 03:07:24;;;;;;;37.53;14.50;;;;;;;14.10;95.08;100031.06;5025712;28;20519;-89
2022/10/14 03:09:52;;;;;;;34.28;13.88;;;;;;;14.05;95.46;100036.84;5045852;28;20048;-89
2022/10/14 03:12:22;;;;;;;32.42;13.10;;;;;;;14.05;95.05;100028.84;5025199;28;20059;-89
2022/10/14 03:14:52;;;;;;;34.00;14.55;;;;;;;14.07;94.92;100034.03;5028148;28;20064;-89
2022/10/14 03:17:20;;;;;;;31.75;14.77;;;;;;;14.07;94.92;100034.03;5022957;28;20056;-89
2022/10/14 03:19:49;;;;;;;45.25;15.57;;;;;;;14.07;94.85;100026.88;5052811;28;20044;-90
2022/10/14 03:22:16;;;;;;;43.22;16.48;;;;;;;14.10;94.85;100031.06;5076963;28;20044;-89
2022/10/14 03:24:43;;;;;;;54.47;16.88;;;;;;;14.08;95.07;100028.53;5063561;28;20130;-89
2022/10/14 03:27:28;;;;;;;41.45;17.30;;;;;;;14.08;94.93;100025.03;5060481;28;20517;-89
2022/10/14 03:30:00;;;;;;;60.13;17.60;;;;;;;14.07;95.09;100016.19;5068569;28;20524;-90
2022/10/14 03:32:27;;;;;;;40.63;16.35;;;;;;;14.11;94.79;100028.22;5042713;28;20055;-89
2022/10/14 03:35:24;;;;;;;39.03;16.65;;;;;;;14.09;94.90;100024.88;5031078;28;20585;-89
2022/10/14 03:37:54;;;;;;;44.83;17.65;;;;;;;14.07;95.10;100010.84;5057993;28;20414;-89
2022/10/14 03:40:29;;;;;;;45.30;18.23;;;;;;;14.08;94.71;100004.50;5017569;28;20088;-89
2022/10/14 03:43:00;;;;;;;41.25;18.25;;;;;;;14.09;94.64;100006.19;5051606;28;20162;-89
2022/10/14 03:45:33;;;;;;;42.40;19.83;;;;;;;14.09;94.63;100000.84;5062462;28;20120;-90
2022/10/14 03:48:01;;;;;;;50.38;21.13;;;;;;;14.10;94.71;100002.50;5048136;28;20151;-90
2022/10/14 03:50:28;;;;;;;45.47;22.02;;;;;;;14.12;94.40;100002.38;5041627;28;20075;-88
2022/10/14 03:52:56;;;;;;;61.10;22.98;;;;;;;14.12;94.52;99999.69;5052297;28;20087;-90
2022/10/14 03:55:30;;;;;;;53.20;22.35;;;;;;;14.11;94.75;99996.16;5056006;28;20432;-90
2022/10/14 03:57:56;;;;;;;77.93;24.15;;;;;;;14.13;94.60;99992.53;5056100;28;20044;-90
2022/10/14 04:00:25;;;;;;;65.88;22.65;;;;;;;14.13;94.37;99993.34;5039319;28;20051;-89
2022/10/14 04:03:05;;;;;;;55.47;21.40;;;;;;;14.13;94.56;99980.00;5032827;28;20048;-90
2022/10/14 04:05:36;;;;;;;48.58;21.80;;;;;;;14.14;94.54;99988.84;5058175;28;20487;-90
2022/10/14 04:08:09;;;;;;;52.78;21.83;;;;;;;14.10;94.75;99983.00;5041304;28;20056;-89
2022/10/14 04:10:39;;;;;;;49.78;21.60;;;;;;;14.10;94.60;99991.84;5060594;28;20682;-89
2022/10/14 04:13:09;;;;;;;49.30;22.40;;;;;;;14.09;94.60;99982.16;5040099;28;20121;-90
2022/10/14 04:15:38;;;;;;;43.53;21.17;;;;;;;14.09;94.79;99990.16;5039479;28;20060;-89
2022/10/14 04:18:13;;;;;;;48.28;20.67;;;;;;;14.08;94.59;99979.63;5044459;28;20044;-89
2022/10/14 04:20:42;;;;;;;54.10;21.13;;;;;;;14.07;94.92;99978.78;5042630;28;20499;-89
2022/10/14 04:23:09;;;;;;;45.53;20.30;;;;;;;14.06;94.99;99982.44;5058842;28;20041;-89
2022/10/14 04:25:39;;;;;;;47.72;20.02;;;;;;;14.05;94.95;99985.28;5044733;28;20446;-91
2022/10/14 04:28:06;;;;;;;53.80;20.63;;;;;;;14.07;94.66;99989.47;5071444;28;20365;-89
2022/10/14 04:30:57;;;;;;;54.90;20.30;;;;;;;14.05;94.69;99991.47;5068301;28;20127;-89
2022/10/14 04:33:31;;;;;;;40.90;18.33;;;;;;;14.05;95.18;99991.47;5051749;28;20055;-89
2022/10/14 04:36:08;;;;;;;39.10;17.92;;;;;;;14.03;94.88;99982.75;5044197;28;20068;-89
2022/10/14 04:38:38;;;;;;;44.33;18.45;;;;;;;14.03;94.95;99982.75;5024357;28;20101;-89
2022/10/14 04:41:07;;;;;;;40.95;16.95;;;;;;;14.02;94.90;99983.75;5054861;28;20114;-89
2022/10/14 04:43:34;;;;;;;42.15;17.40;;;;;;;14.03;94.87;99976.59;5056170;28;20409;-89
2022/10/14 04:46:16;;;;;;;45.20;18.33;;;;;;;14.00;95.03;99982.25;5069566;28;20040;-89
2022/10/14 04:48:46;;;;;;;43.97;17.98;;;;;;;14.03;94.78;99973.91;5067619;28;20041;-90
2022/10/14 04:51:14;;;;;;;39.63;17.45;;;;;;;14.01;94.93;99978.56;5031732;28;20070;-89
2022/10/14 04:53:47;;;;;;;45.70;18.67;;;;;;;14.00;95.01;99982.25;5043286;28;20053;-90
2022/10/14 04:56:32;;;;;;;40.28;17.80;;;;;;;14.01;95.10;99966.06;5053567;28;20052;-90
2022/10/14 04:59:02;;;;;;;35.40;17.35;;;;;;;14.02;94.68;99956.22;5057765;28;20074;-90
2022/10/14 05:01:49;;;;;;;45.58;16.92;;;;;;;14.01;94.58;99951.88;5060285;28;20060;-90
2022/10/14 05:04:16;;;;;;;37.88;15.82;;;;;;;14.00;94.68;99952.88;5059688;28;20387;-89
2022/10/14 05:06:46;;;;;;;42.95;16.83;;;;;;;13.97;94.79;99951.34;5050570;28;20133;-89
2022/10/14 05:09:14;;;;;;;34.50;15.02;;;;;;;13.98;94.47;99942.34;5044004;28;20044;-84
2022/10/14 05:11:42;;;;;;;40.35;15.93;;;;;;;13.96;94.41;99941.66;5060692;28;20047;-84
2022/10/14 05:14:12;;;;;;;34.50;16.10;;;;;;;13.97;94.58;99934.47;5042535;28;20389;-84
2022/10/14 05:16:41;;;;;;;33.13;15.82;;;;;;;13.99;94.18;99937.81;5057174;28;20059;-84
2022/10/14 05:19:09;;;;;;;46.17;17.17;;;;;;;13.96;94.32;99936.31;5050250;28;20051;-83
2022/10/14 05:21:45;;;;;;;46.20;16.92;;;;;;;13.95;94.17;99928.47;5036600;28;20102;-84
2022/10/14 05:24:14;;;;;;;39.80;17.48;;;;;;;13.93;94.05;99925.13;5043156;28;20118;-84
2022/10/14 05:26:43;;;;;;;39.35;17.45;;;;;;;13.94;93.76;99924.94;5076269;28;20136;-85
2022/10/14 05:29:12;;;;;;;44.00;17.42;;;;;;;13.93;93.85;99914.44;5074406;28;20114;-84
2022/10/14 05:31:39;;;;;;;42.75;18.27;;;;;;;13.92;93.71;99920.75;5073064;28;20117;-84
2022/10/14 05:34:19;;;;;;;46.10;17.13;;;;;;;13.90;93.80;99919.09;5052606;28;20090;-83
2022/10/14 05:36:45;;;;;;;46.72;17.95;;;;;;;13.88;94.02;99917.56;5043915;28;20411;-84
2022/10/14 05:39:12;;;;;;;44.22;18.55;;;;;;;13.88;93.78;99920.22;5045162;28;20056;-84
2022/10/14 05:41:39;;;;;;;45.33;19.13;;;;;;;13.89;93.62;99920.09;5058903;28;20503;-84
2022/10/14 05:44:06;;;;;;;43.30;18.55;;;;;;;13.87;93.70;99930.09;5043997;28;20045;-84
2022/10/14 05:46:33;;;;;;;43.70;18.55;;;;;;;13.87;93.70;99924.75;5055473;28;20052;-84
2022/10/14 05:49:04;;;;;;;43.10;17.75;;;;;;;13.85;93.90;99925.88;5029622;28;20076;-84
2022/10/14 05:51:34;;;;;;;36.28;17.23;;;;;;;13.86;93.64;99931.06;5059104;28;20067;-84
2022/10/14 05:54:09;;;;;;;37.10;17.42;;;;;;;13.86;93.73;99927.56;5048079;28;20510;-84
2022/10/14 05:56:36;;;;;;;47.67;18.55;;;;;;;13.85;93.86;99924.06;5056928;28;20053;-85
2022/10/14 05:59:03;;;;;;;42.97;17.77;;;;;;;13.87;93.79;99918.56;5040357;28;20051;-85
2022/10/14 06:01:33;;;;;;;31.63;17.08;;;;;;;13.85;94.02;99924.06;5033217;28;20423;-85
2022/10/14 06:04:01;;;;;;;38.45;17.45;;;;;;;13.86;94.27;99932.88;5046534;28;20041;-84
2022/10/14 06:06:27;;;;;;;38.42;17.98;;;;;;;13.89;94.26;99929.91;5078304;28;20510;-84
2022/10/14 06:08:55;;;;;;;41.28;19.13;;;;;;;13.86;94.13;99933.72;5025178;28;20518;-84
2022/10/14 06:11:22;;;;;;;41.70;18.17;;;;;;;13.88;94.18;99938.91;5061916;28;20036;-84
2022/10/14 06:13:49;;;;;;;34.05;17.17;;;;;;;13.88;94.47;99938.91;5080049;28;20126;-84
2022/10/14 06:16:16;;;;;;;34.92;18.08;;;;;;;13.89;94.19;99927.22;5065681;28;20410;-84
2022/10/14 06:18:43;;;;;;;42.13;18.60;;;;;;;13.93;94.15;99930.44;5061576;28;20045;-84
2022/10/14 06:21:11;;;;;;;41.33;18.02;;;;;;;13.91;94.11;99922.59;5056666;28;20135;-84
2022/10/14 06:23:37;;;;;;;40.97;19.02;;;;;;;13.90;94.23;99916.41;5048566;28;20100;-84
2022/10/14 06:26:05;;;;;;;49.25;18.48;;;;;;;13.93;94.45;99919.78;5063478;28;20121;-85
2022/10/14 06:28:32;;;;;;;38.35;18.48;;;;;;;13.97;93.94;99921.13;5059075;28;20080;-85
2022/10/14 06:30:59;;;;;;;35.03;16.95;;;;;;;13.99;94.24;99925.34;5077082;28;20051;-83
2022/10/14 06:33:27;;;;;;;51.17;18.33;;;;;;;13.96;94.25;99928.28;5057641;28;20083;-83
2022/10/14 06:35:54;;;;;;;45.83;18.85;;;;;;;14.00;94.20;99923.50;5062215;28;20039;-83
2022/10/14 06:38:21;;;;;;;36.40;17.75;;;;;;;14.02;94.02;99932.19;5032527;28;20054;-84
2022/10/14 06:40:52;;;;;;;36.03;17.85;;;;;;;13.99;93.90;99928.00;5063210;28;20095;-84
2022/10/14 06:43:20;;;;;;;37.05;18.08;;;;;;;14.01;94.26;99934.00;5060731;28;20052;-83
2022/10/14 06:45:47;;;;;;;41.10;17.30;;;;;;;14.02;94.57;99930.38;5071767;28;20541;-84
2022/10/14 06:48:14;;;;;;;38.20;17.67;;;;;;;14.01;94.44;99930.50;5075411;28;20063;-84
2022/10/14 06:50:41;;;;;;;36.80;18.23;;;;;;;14.03;94.20;99928.53;5079360;28;20075;-82
2022/10/14 06:53:08;;;;;;;41.47;19.08;;;;;;;14.03;94.46;99928.53;5065633;28;20081;-82
2022/10/14 06:55:35;;;;;;;39.78;17.05;;;;;;;14.03;94.48;99926.69;5055794;28;20068;-82
2022/10/14 06:58:01;;;;;;;40.60;18.55;;;;;;;14.05;94.39;99924.72;5067474;28;20399;-82
2022/10/14 07:00:28;;;;;;;41.10;18.30;;;;;;;14.07;94.38;99925.41;5073677;28;20040;-83
2022/10/14 07:02:58;;;;;;;40.97;18.17;;;;;;;14.10;93.92;99924.25;5081788;28;20487;-83
2022/10/14 07:05:25;;;;;;;41.38;18.70;;;;;;;14.13;94.00;99925.75;5047863;28;20498;-83
2022/10/14 07:07:52;;;;;;;35.40;18.10;;;;;;;14.11;94.14;99932.06;5078084;28;20059;-83
2022/10/14 07:10:19;;;;;;;39.42;18.73;;;;;;;14.16;93.86;99930.78;5057650;28;20127;-83
2022/10/14 07:12:46;;;;;;;43.92;18.63;;;;;;;14.16;94.00;99930.78;5076657;28;20101;-82
2022/10/14 07:15:12;;;;;;;42.75;18.67;;;;;;;14.16;94.05;99930.78;5034388;28;20044;-83
2022/10/14 07:17:39;;;;;;;40.60;19.00;;;;;;;14.17;94.16;99929.78;5046228;28;20052;-83
2022/10/14 07:20:06;;;;;;;37.42;19.40;;;;;;;14.17;93.92;99921.75;5074441;28;20113;-83
2022/10/14 07:22:35;;;;;;;38.58;19.10;;;;;;;14.18;93.68;99926.13;5055005;28;20052;-82
2022/10/14 07:25:05;;;;;;;41.28;18.65;;;;;;;14.20;93.54;99922.31;5054091;28;20063;-82
2022/10/14 07:27:32;;;;;;;33.42;17.27;;;;;;;14.23;93.69;99929.16;5083014;28;20050;-82
2022/10/14 07:30:00;;;;;;;41.92;19.08;;;;;;;14.26;93.28;99936.88;5076575;28;20040;-83
2022/10/14 07:32:27;;;;;;;41.65;19.92;;;;;;;14.24;93.13;99937.00;5055011;28;20135;-84
2022/10/14 07:34:53;;;;;;;36.90;18.67;;;;;;;14.24;92.97;99937.00;5068555;28;20064;-85
2022/10/14 07:37:20;;;;;;;48.00;21.08;;;;;;;14.25;92.98;99940.53;5062667;28;20079;-84
2022/10/14 07:39:48;;;;;;;45.25;19.83;;;;;;;14.26;92.99;99943.03;5054124;28;20060;-83
2022/10/14 07:42:14;;;;;;;37.67;18.90;;;;;;;14.27;92.97;99933.19;5030918;28;20450;-84
2022/10/14 07:44:41;;;;;;;39.25;19.92;;;;;;;14.31;92.98;99929.22;5072188;28;20044;-83
2022/10/14 07:47:08;;;;;;;45.38;19.15;;;;;;;14.33;92.79;99921.88;5038016;28;20450;-83
2022/10/14 07:49:35;;;;;;;37.92;18.33;;;;;;;14.38;92.77;99932.09;5083016;28;20040;-83
2022/10/14 07:52:01;;;;;;;40.85;19.25;;;;;;;14.42;92.71;99912.91;5066847;28;20043;-83
2022/10/14 07:54:29;;;;;;;35.47;16.27;;;;;;;14.46;92.71;99918.78;5079591;28;20037;-83
2022/10/14 07:56:56;;;;;;;39.53;17.40;;;;;;;14.50;92.63;99918.31;5058505;28;20066;-84
2022/10/14 07:59:23;;;;;;;43.85;18.48;;;;;;;14.53;92.72;99906.50;5069670;28;20415;-84
2022/10/14 08:01:51;;;;;;;39.95;18.67;;;;;;;14.56;92.47;99919.53;5046636;28;20499;-84
2022/10/14 08:04:18;;;;;;;42.22;18.90;;;;;;;14.60;92.49;99926.22;5066402;28;20089;-83
2022/10/14 08:06:49;;;;;;;41.65;18.60;;;;;;;14.61;92.56;99921.75;5045328;28;20066;-83
2022/10/14 08:09:17;;;;;;;33.80;17.55;;;;;;;14.65;92.48;99915.88;5056372;28;20063;-82
2022/10/14 08:11:43;;;;;;;39.28;18.58;;;;;;;14.66;92.32;99920.25;5040705;28;20079;-85
2022/10/14 08:14:10;;;;;;;34.83;16.45;;;;;;;14.69;92.03;99911.91;5077038;28;20043;-84
2022/10/14 08:16:38;;;;;;;33.10;16.05;;;;;;;14.72;92.38;99911.59;5065341;28;20052;-83
2022/10/14 08:19:07;;;;;;;38.00;16.45;;;;;;;14.74;92.41;99909.59;5060484;28;20566;-85
2022/10/14 08:21:40;;;;;;;36.67;16.73;;;;;;;14.77;92.55;99916.44;5023139;28;20062;-85
2022/10/14 08:24:07;;;;;;;35.38;16.00;;;;;;;14.80;92.25;99910.78;5056313;28;20040;-85
2022/10/14 08:26:55;;;;;;;36.40;15.52;;;;;;;14.80;92.17;99908.09;5029379;28;20576;-83
2022/10/14 08:29:22;;;;;;;38.38;16.23;;;;;;;14.84;92.40;99900.63;5055774;28;20048;-83
2022/10/14 08:31:51;;;;;;;30.33;15.57;;;;;;;14.86;92.21;99893.28;5067987;28;20067;-83
2022/10/14 08:34:22;;;;;;;37.17;15.27;;;;;;;14.88;92.28;99897.47;5070121;28;20399;-83
2022/10/14 08:36:50;;;;;;;32.80;16.13;;;;;;;14.91;92.10;99899.81;5062895;28;20049;-83
2022/10/14 08:39:18;;;;;;;29.75;14.82;;;;;;;14.93;92.09;99903.16;5036276;28;20051;-83
2022/10/14 08:42:11;;;;;;;31.25;14.57;;;;;;;14.89;91.87;99895.63;5063999;28;20052;-83
2022/10/14 08:44:46;;;;;;;26.75;14.00;;;;;;;14.91;92.21;99898.97;5074971;28;20454;-83
2022/10/14 08:47:14;;;;;;;29.38;13.25;;;;;;;14.98;91.92;99898.16;5062689;28;20123;-83
2022/10/14 08:50:01;;;;;;;29.55;13.73;;;;;;;14.91;91.70;99894.47;5050877;28;20131;-82
2022/10/14 08:52:38;;;;;;;31.02;12.23;;;;;;;14.93;91.54;99895.16;5070321;28;20051;-83
2022/10/14 08:55:26;;;;;;;21.40;11.27;;;;;;;14.89;91.46;99900.97;5061085;28;20043;-83
2022/10/14 08:58:21;;;;;;;23.05;11.25;;;;;;;14.95;91.47;99897.63;5053395;28;20040;-83
2022/10/14 09:00:50;;;;;;;26.15;12.43;;;;;;;15.01;91.34;99901.50;5077632;28;20041;-83
2022/10/14 09:03:19;;;;;;;27.02;13.80;;;;;;;15.01;91.25;99896.16;5046868;28;20048;-83
2022/10/14 09:05:53;;;;;;;26.83;13.60;;;;;;;14.98;90.87;99892.81;5082327;28;20471;-83
2022/10/14 09:08:29;;;;;;;25.50;12.25;;;;;;;15.01;91.35;99897.00;5071171;28;20044;-83
2022/10/14 09:10:56;;;;;;;19.77;11.60;;;;;;;15.03;91.22;99891.47;5056689;28;20052;-83
2022/10/14 09:13:30;;;;;;;26.55;12.52;;;;;;;15.03;91.06;99888.81;5049684;28;20116;-82
2022/10/14 09:16:03;;;;;;;27.98;13.95;;;;;;;15.03;91.13;99891.47;5059714;28;20070;-83
2022/10/14 09:18:37;;;;;;;21.45;12.50;;;;;;;15.03;91.28;99886.97;5046782;28;20083;-83
2022/10/14 09:21:23;;;;;;;27.27;12.00;;;;;;;14.98;91.05;99886.59;5068303;28;20060;-83
2022/10/14 09:24:25;;;;;;;28.48;12.60;;;;;;;15.00;91.25;99884.63;5080973;28;20029;-83
2022/10/14 09:27:21;;;;;;;25.15;12.93;;;;;;;14.97;91.04;99887.63;5043955;28;20485;-83
2022/10/14 09:29:52;;;;;;;25.58;13.93;;;;;;;15.07;91.18;99888.31;5053378;28;20803;-83
2022/10/14 09:32:39;;;;;;;28.90;12.52;;;;;;;15.06;91.16;99889.31;5080610;28;20036;-83
2022/10/14 09:35:33;;;;;;;22.20;12.15;;;;;;;15.03;91.15;99878.94;5068686;28;20044;-83
2022/10/14 09:38:00;;;;;;;23.33;11.00;;;;;;;15.14;91.27;99878.66;5073711;28;20052;-83
2022/10/14 09:40:33;;;;;;;26.55;11.65;;;;;;;15.18;91.05;99871.13;5042199;28;20098;-83
2022/10/14 09:43:08;;;;;;;23.02;11.68;;;;;;;15.14;90.93;99873.28;5077585;28;20040;-82
2022/10/14 09:45:49;;;;;;;23.60;11.23;;;;;;;15.15;91.02;99866.94;5058670;28;20457;-84
2022/10/14 09:48:38;;;;;;;24.88;11.50;;;;;;;15.23;91.55;99871.47;5061421;28;20372;-84
2022/10/14 09:51:08;;;;;;;24.13;11.50;;;;;;;15.27;91.04;99863.97;5046499;28;20109;-83
2022/10/14 09:53:44;;;;;;;24.08;12.15;;;;;;;15.24;90.81;99854.44;5061665;28;20052;-83
2022/10/14 09:56:11;;;;;;;24.10;12.15;;;;;;;15.31;90.94;99851.91;5078208;28;20044;-83
2022/10/14 09:58:44;;;;;;;29.25;12.57;;;;;;;15.30;90.48;99858.28;5070343;28;20059;-83
2022/10/14 10:01:17;;;;;;;22.15;11.00;;;;;;;15.32;90.53;99854.44;5053898;28;20045;-86
2022/10/14 10:03:45;;;;;;;25.80;11.93;;;;;;;15.37;90.99;99840.56;5045191;28;20386;-82
2022/10/14 10:06:15;;;;;;;28.65;12.68;;;;;;;15.39;90.74;99834.03;5037011;28;20036;-83
2022/10/14 10:08:58;;;;;;;29.52;11.43;;;;;;;15.37;90.51;99836.03;5082934;28;20050;-82
2022/10/14 10:11:38;;;;;;;20.73;11.35;;;;;;;15.44;90.11;99825.47;5067462;28;20051;-84
2022/10/14 10:14:43;;;;;;;16.02;9.05;;;;;;;15.40;89.57;99825.00;5074159;28;20450;-83
2022/10/14 10:17:14;;;;;;;19.75;10.63;;;;;;;15.54;89.67;99819.97;5020976;28;20103;-82
2022/10/14 10:19:42;;;;;;;41.70;14.90;;;;;;;15.57;89.47;99820.47;5043144;28;20053;-82
2022/10/14 10:22:25;;;;;;;29.95;12.55;;;;;;;15.54;88.98;99817.28;5054071;28;20665;-84
2022/10/14 10:25:01;;;;;;;20.85;9.60;;;;;;;15.55;88.64;99817.13;5071749;28;20185;-83
2022/10/14 10:27:35;;;;;;;17.52;8.93;;;;;;;15.64;88.58;99812.59;5076091;28;20098;-83
2022/10/14 10:30:17;;;;;;;15.00;7.65;;;;;;;15.60;87.72;99801.41;5063825;28;20041;-83
2022/10/14 10:32:56;;;;;;;17.05;7.63;;;;;;;15.66;87.89;99805.22;5068151;28;20372;-83
2022/10/14 10:35:44;;;;;;;16.20;8.65;;;;;;;15.69;87.56;99802.25;5057011;28;20098;-83
2022/10/14 10:38:24;;;;;;;19.27;9.77;;;;;;;15.66;87.15;99794.53;5070261;28;20456;-83
2022/10/14 10:40:51;;;;;;;16.98;8.25;;;;;;;15.73;87.45;99784.03;5059860;28;20060;-81
2022/10/14 10:43:25;;;;;;;17.55;7.22;;;;;;;15.75;87.80;99784.69;5080759;28;20048;-82
2022/10/14 10:46:27;;;;;;;17.60;8.38;;;;;;;15.72;86.84;99782.34;5062368;28;20063;-82
2022/10/14 10:49:17;;;;;;;22.95;10.02;;;;;;;15.73;86.67;99773.31;5049029;28;20102;-84
2022/10/14 10:51:56;;;;;;;18.35;8.02;;;;;;;15.84;86.99;99772.94;5054861;28;20053;-83
2022/10/14 10:54:48;;;;;;;16.85;7.82;;;;;;;15.82;86.21;99761.56;5048687;28;20052;-82
2022/10/14 10:57:18;;;;;;;16.60;8.23;;;;;;;15.95;86.68;99767.25;5058463;28;20032;-84
2022/10/14 11:00:08;;;;;;;14.20;7.90;;;;;;;15.96;86.20;99765.38;5066273;28;20056;-84
2022/10/14 11:02:43;;;;;;;24.17;10.20;;;;;;;15.97;86.18;99769.72;5039242;28;20072;-84
2022/10/14 11:05:27;;;;;;;19.25;8.63;;;;;;;15.95;85.48;99771.72;5061160;28;20032;-83
2022/10/14 11:12:01;;;;;;;17.08;7.28;;;;;;;15.93;85.74;99760.38;5068250;28;20043;-83
2022/10/14 11:14:29;;;;;;;18.48;9.27;;;;;;;15.95;85.96;99756.53;5055364;28;20066;-83
2022/10/14 11:17:10;;;;;;;13.05;6.88;;;;;;;15.94;86.00;99757.50;5060328;28;20086;-83
2022/10/14 11:20:10;;;;;;;13.30;7.18;;;;;;;15.92;85.56;99745.31;5079782;28;20360;-83
2022/10/14 11:23:06;;;;;;;16.77;7.28;;;;;;;15.86;85.62;99741.47;5064123;28;20051;-84
2022/10/14 11:25:48;;;;;;;17.15;8.43;;;;;;;15.86;85.71;99746.84;5038754;28;20045;-84
2022/10/14 11:28:35;;;;;;;18.75;8.98;;;;;;;15.82;86.49;99743.69;5029760;28;20044;-84
2022/10/14 11:31:27;;;;;;;20.35;8.85;;;;;;;15.84;86.66;99740.81;5080618;28;20090;-83
2022/10/14 11:34:03;;;;;;;20.00;9.00;;;;;;;15.86;87.60;99735.28;5070610;28;20048;-83
2022/10/14 11:37:02;;;;;;;18.05;9.02;;;;;;;15.75;88.12;99742.69;5045859;28;20088;-83
2022/10/14 11:39:29;;;;;;;22.10;9.15;;;;;;;15.86;88.58;99737.97;5031643;28;20106;-83
2022/10/14 11:42:12;;;;;;;28.25;13.30;;;;;;;15.81;89.29;99746.50;5075962;28;20475;-83
2022/10/14 11:44:40;;;;;;;20.15;10.40;;;;;;;15.83;89.65;99739.16;5078234;28;20407;-82
2022/10/14 11:47:14;;;;;;;19.75;8.77;;;;;;;15.79;89.74;99738.63;5074734;28;20037;-83